Time;durP1;ratioP1;P1;durP2;ratioP2;P2;SDS_P1;SDS_P2;PMS_P1;PMS_P2;Temp;Humidity;BMP_temperature;BMP_pressure;BME280_temperature;BME280_humidity;BME280_pressure;Samples;Min_cycle;Max_cycle;Signal;HPM_P1;HPM_P2
2022/05/02 00:00:09;;;;;;;38.78;18.35;;;;;;;;;;5019328;28;20029;-75
2022/05/02 00:02:35;;;;;;;38.30;17.33;;;;;;;;;;5010939;28;20044;-76
2022/05/02 00:05:01;;;;;;;35.97;15.77;;;;;;;;;;5020284;28;20033;-75
2022/05/02 00:07:30;;;;;;;31.60;15.00;;;;;;;;;;5024022;28;20108;-75
2022/05/02 00:09:56;;;;;;;50.38;17.65;;;;;;;;;;4988726;28;20455;-75
2022/05/02 00:12:21;;;;;;;38.67;16.65;;;;;;;;;;5023458;28;20037;-75
2022/05/02 00:14:47;;;;;;;37.33;15.65;;;;;;;;;;5022618;28;20103;-80
2022/05/02 00:17:12;;;;;;;34.42;16.52;;;;;;;;;;5021038;28;20525;-81
2022/05/02 00:19:38;;;;;;;34.05;16.60;;;;;;;;;;5001870;28;20507;-80
2022/05/02 00:22:04;;;;;;;29.77;16.00;;;;;;;;;;5023260;28;20068;-80
2022/05/02 00:24:30;;;;;;;38.88;16.15;;;;;;;;;;5018523;28;20030;-80
2022/05/02 00:26:56;;;;;;;39.33;18.45;;;;;;;;;;4991306;28;20021;-81
2022/05/02 00:29:22;;;;;;;37.47;18.25;;;;;;;;;;4998491;28;20116;-81
2022/05/02 00:31:47;;;;;;;33.80;16.13;;;;;;;;;;5001824;28;20583;-81
2022/05/02 00:34:13;;;;;;;35.13;16.38;;;;;;;;;;4999974;28;20471;-81
2022/05/02 00:36:39;;;;;;;33.50;16.45;;;;;;;;;;5019175;28;20040;-81
2022/05/02 00:39:05;;;;;;;34.22;17.17;;;;;;;;;;5009663;28;20087;-80
2022/05/02 00:41:31;;;;;;;38.55;17.80;;;;;;;;;;5022049;28;20029;-80
2022/05/02 00:43:57;;;;;;;36.22;16.88;;;;;;;;;;5022907;28;20511;-80
2022/05/02 00:46:24;;;;;;;36.75;17.73;;;;;;;;;;5018753;28;20065;-81
2022/05/02 00:48:50;;;;;;;41.22;18.20;;;;;;;;;;5034734;28;20044;-80
2022/05/02 00:51:17;;;;;;;35.40;18.23;;;;;;;;;;5005271;28;20120;-80
2022/05/02 00:53:45;;;;;;;36.72;16.60;;;;;;;;;;5022359;28;20053;-80
2022/05/02 00:56:11;;;;;;;46.45;17.30;;;;;;;;;;5019523;28;20029;-80
2022/05/02 00:58:37;;;;;;;37.97;16.83;;;;;;;;;;5009128;28;20598;-80
2022/05/02 01:01:04;;;;;;;28.05;16.00;;;;;;;;;;5026357;28;20029;-80
2022/05/02 01:03:31;;;;;;;33.97;13.73;;;;;;;;;;5007437;28;20128;-81
2022/05/02 01:08:41;;;;;;;19.55;10.75;;;;;;;;;;5033248;28;20024;-80
2022/05/02 01:11:08;;;;;;;23.48;10.35;;;;;;;;;;5028160;28;20029;-81
2022/05/02 01:13:36;;;;;;;16.60;9.38;;;;;;;;;;5009952;28;20484;-81
2022/05/02 01:16:26;;;;;;;17.13;9.23;;;;;;;;;;5027616;28;20052;-81
2022/05/02 01:18:54;;;;;;;16.23;8.43;;;;;;;;;;5038047;28;20501;-80
2022/05/02 01:21:25;;;;;;;17.13;8.50;;;;;;;;;;5023317;28;20523;-80
2022/05/02 01:24:04;;;;;;;17.27;8.45;;;;;;;;;;5028792;28;20040;-81
2022/05/02 01:26:30;;;;;;;18.73;8.68;;;;;;;;;;5019706;28;20025;-81
2022/05/02 01:28:58;;;;;;;20.20;8.73;;;;;;;;;;5010608;28;20041;-81
2022/05/02 01:31:24;;;;;;;21.10;8.07;;;;;;;;;;5026185;28;20540;-81
2022/05/02 01:33:51;;;;;;;17.13;7.65;;;;;;;;;;5029517;28;20037;-81
2022/05/02 01:36:19;;;;;;;12.38;7.68;;;;;;;;;;5008918;28;20446;-80
2022/05/02 01:38:44;;;;;;;13.68;7.63;;;;;;;;;;5028476;28;20025;-81
2022/05/02 01:41:10;;;;;;;17.27;8.32;;;;;;;;;;5027023;28;20286;-81
2022/05/02 01:43:36;;;;;;;18.33;8.25;;;;;;;;;;5011863;28;20041;-82
2022/05/02 01:46:04;;;;;;;19.27;8.05;;;;;;;;;;5010507;28;20621;-82
2022/05/02 01:48:30;;;;;;;17.88;9.48;;;;;;;;;;5027120;28;20021;-81
2022/05/02 01:50:57;;;;;;;18.08;8.45;;;;;;;;;;5026016;28;20076;-81
2022/05/02 01:53:22;;;;;;;20.42;8.77;;;;;;;;;;4991008;28;20100;-81
2022/05/02 01:55:48;;;;;;;17.92;8.82;;;;;;;;;;5025740;28;20010;-81
2022/05/02 01:58:14;;;;;;;17.92;9.52;;;;;;;;;;5010809;28;20036;-81
2022/05/02 02:00:39;;;;;;;19.85;9.45;;;;;;;;;;5026207;28;20114;-80
2022/05/02 02:03:05;;;;;;;16.75;8.65;;;;;;;;;;5026809;28;20044;-81
2022/05/02 02:05:49;;;;;;;17.77;9.48;;;;;;;;;;5008882;28;20063;-80
2022/05/02 02:08:16;;;;;;;18.33;9.13;;;;;;;;;;5027181;28;20061;-80
2022/05/02 02:10:43;;;;;;;24.10;9.98;;;;;;;;;;5026350;28;20068;-80
2022/05/02 02:13:10;;;;;;;17.83;9.52;;;;;;;;;;5025990;28;20029;-81
2022/05/02 02:15:36;;;;;;;17.60;9.25;;;;;;;;;;5025735;28;20508;-80
2022/05/02 02:18:01;;;;;;;23.55;10.35;;;;;;;;;;5025126;28;20041;-80
2022/05/02 02:20:27;;;;;;;23.13;10.77;;;;;;;;;;5017722;28;20029;-81
2022/05/02 02:22:54;;;;;;;21.75;10.07;;;;;;;;;;5025611;28;20136;-81
2022/05/02 02:25:20;;;;;;;18.55;10.27;;;;;;;;;;5024893;28;20061;-81
2022/05/02 02:27:45;;;;;;;23.13;10.38;;;;;;;;;;5028835;28;20590;-81
2022/05/02 02:30:11;;;;;;;21.00;10.02;;;;;;;;;;5024576;28;20029;-80
2022/05/02 02:32:37;;;;;;;24.45;11.07;;;;;;;;;;5028479;28;20033;-81
2022/05/02 02:35:03;;;;;;;24.77;10.48;;;;;;;;;;4989393;28;20456;-81
2022/05/02 02:37:28;;;;;;;22.20;11.18;;;;;;;;;;5022091;28;20021;-81
2022/05/02 02:39:54;;;;;;;36.63;13.18;;;;;;;;;;5020474;28;20037;-80
2022/05/02 02:42:19;;;;;;;31.20;12.93;;;;;;;;;;5023695;28;20157;-81
2022/05/02 02:44:45;;;;;;;30.15;12.57;;;;;;;;;;5022690;28;20519;-81
2022/05/02 02:47:10;;;;;;;28.35;13.55;;;;;;;;;;5027414;28;20531;-81
2022/05/02 02:49:36;;;;;;;32.75;13.52;;;;;;;;;;5010060;28;20568;-80
2022/05/02 02:52:01;;;;;;;31.13;13.52;;;;;;;;;;5024974;28;20068;-81
2022/05/02 02:54:27;;;;;;;30.42;12.98;;;;;;;;;;5026307;28;20025;-81
2022/05/02 02:56:53;;;;;;;29.20;13.73;;;;;;;;;;5022125;28;20030;-81
2022/05/02 02:59:18;;;;;;;32.70;13.65;;;;;;;;;;5003954;28;20510;-81
2022/05/02 03:01:44;;;;;;;32.65;14.05;;;;;;;;;;5026643;28;20031;-81
2022/05/02 03:06:54;;;;;;;40.33;17.15;;;;;;;;;;5022491;28;20028;-80
2022/05/02 03:09:19;;;;;;;37.53;15.15;;;;;;;;;;5010002;28;20041;-80
2022/05/02 03:11:45;;;;;;;39.97;16.42;;;;;;;;;;5021464;28;20264;-80
2022/05/02 03:14:11;;;;;;;42.50;15.60;;;;;;;;;;5022220;28;20423;-76
2022/05/02 03:16:37;;;;;;;47.83;18.00;;;;;;;;;;5025037;28;20022;-76
2022/05/02 03:19:02;;;;;;;47.45;18.77;;;;;;;;;;4988872;28;20037;-75
2022/05/02 03:21:28;;;;;;;49.13;19.17;;;;;;;;;;5022967;28;20033;-75
2022/05/02 03:23:53;;;;;;;45.55;18.75;;;;;;;;;;5022475;28;20419;-76
2022/05/02 03:26:19;;;;;;;49.35;19.35;;;;;;;;;;5006963;28;20041;-76
2022/05/02 03:28:44;;;;;;;55.17;19.85;;;;;;;;;;5006689;28;20515;-76
2022/05/02 03:31:10;;;;;;;45.60;17.95;;;;;;;;;;5024209;28;20163;-76
2022/05/02 03:33:35;;;;;;;48.95;18.40;;;;;;;;;;5008056;28;20172;-75
2022/05/02 03:36:01;;;;;;;60.10;19.50;;;;;;;;;;5007850;28;20037;-75
2022/05/02 03:38:26;;;;;;;48.38;18.50;;;;;;;;;;4991768;28;20049;-75
2022/05/02 03:40:52;;;;;;;49.67;19.58;;;;;;;;;;5005265;28;20040;-75
2022/05/02 03:43:17;;;;;;;43.30;18.08;;;;;;;;;;5002473;28;20045;-75
2022/05/02 03:45:43;;;;;;;40.72;16.67;;;;;;;;;;5023263;28;20061;-76
2022/05/02 03:48:08;;;;;;;36.80;15.25;;;;;;;;;;5026856;28;20065;-76
2022/05/02 03:50:34;;;;;;;40.53;16.55;;;;;;;;;;5005760;28;20124;-75
2022/05/02 03:52:59;;;;;;;43.20;17.77;;;;;;;;;;5023954;28;20029;-76
2022/05/02 03:55:26;;;;;;;42.70;16.60;;;;;;;;;;5023062;28;20392;-76
2022/05/02 03:57:52;;;;;;;40.38;16.30;;;;;;;;;;5019624;28;20028;-76
2022/05/02 04:00:18;;;;;;;47.65;18.30;;;;;;;;;;5015238;28;20025;-76
2022/05/02 04:02:43;;;;;;;36.00;15.73;;;;;;;;;;5008273;28;20068;-76
2022/05/02 04:05:09;;;;;;;44.50;18.08;;;;;;;;;;5006213;28;20069;-75
2022/05/02 04:07:35;;;;;;;48.08;17.05;;;;;;;;;;5022961;28;20025;-75
2022/05/02 04:10:03;;;;;;;51.50;18.42;;;;;;;;;;5018756;28;20041;-75
2022/05/02 04:12:38;;;;;;;45.78;17.17;;;;;;;;;;5003709;28;20030;-75
2022/05/02 04:15:09;;;;;;;46.28;17.48;;;;;;;;;;5023389;28;20029;-75
2022/05/02 04:17:35;;;;;;;43.40;18.67;;;;;;;;;;5042412;28;20030;-76
2022/05/02 04:20:01;;;;;;;52.25;18.83;;;;;;;;;;5007475;28;20801;-75
2022/05/02 04:22:28;;;;;;;48.30;19.23;;;;;;;;;;5002015;28;20034;-75
2022/05/02 04:24:53;;;;;;;47.75;19.38;;;;;;;;;;5026769;28;20087;-76
2022/05/02 04:27:19;;;;;;;49.85;18.67;;;;;;;;;;5024837;28;20053;-76
2022/05/02 04:29:44;;;;;;;48.38;19.20;;;;;;;;;;5021482;28;20037;-76
2022/05/02 04:32:10;;;;;;;47.15;19.38;;;;;;;;;;5004063;28;20401;-76
2022/05/02 04:34:35;;;;;;;51.30;19.05;;;;;;;;;;5023683;28;20079;-76
2022/05/02 04:37:01;;;;;;;54.55;18.67;;;;;;;;;;5023080;28;20057;-75
2022/05/02 04:39:26;;;;;;;50.17;19.90;;;;;;;;;;5007426;28;20404;-76
2022/05/02 04:41:52;;;;;;;53.60;20.00;;;;;;;;;;4988305;28;20030;-76
2022/05/02 04:44:17;;;;;;;51.05;18.52;;;;;;;;;;5020721;28;20115;-76
2022/05/02 04:46:43;;;;;;;54.10;19.98;;;;;;;;;;5026988;28;20049;-76
2022/05/02 04:49:10;;;;;;;51.72;18.25;;;;;;;;;;5007602;28;20054;-76
2022/05/02 04:51:36;;;;;;;52.88;21.30;;;;;;;;;;5020031;28;20029;-76
2022/05/02 04:54:02;;;;;;;50.75;19.60;;;;;;;;;;5028731;28;20040;-76
2022/05/02 04:56:27;;;;;;;53.10;20.45;;;;;;;;;;5023082;28;20049;-76
2022/05/02 04:58:53;;;;;;;53.95;21.50;;;;;;;;;;5026806;28;20026;-76
2022/05/02 05:01:18;;;;;;;55.80;19.55;;;;;;;;;;4994829;28;20032;-76
2022/05/02 05:03:44;;;;;;;65.13;22.13;;;;;;;;;;5020900;28;20029;-76
2022/05/02 05:06:10;;;;;;;120.28;26.23;;;;;;;;;;5028735;28;20103;-76
2022/05/02 05:08:35;;;;;;;117.32;24.10;;;;;;;;;;5025043;28;20032;-76
2022/05/02 05:11:19;;;;;;;157.57;27.27;;;;;;;;;;5022276;28;20044;-75
2022/05/02 05:18:17;;;;;;;194.77;29.85;;;;;;;;;;5021035;28;20622;-76
2022/05/02 05:21:07;;;;;;;221.45;33.30;;;;;;;;;;5026403;28;20104;-76
2022/05/02 05:24:18;;;;;;;191.32;31.90;;;;;;;;;;5021055;28;20032;-76
2022/05/02 05:26:49;;;;;;;219.65;31.63;;;;;;;;;;5000241;28;20592;-76
2022/05/02 05:29:20;;;;;;;236.15;34.03;;;;;;;;;;5027309;28;20050;-76
2022/05/02 05:31:57;;;;;;;244.43;36.13;;;;;;;;;;5024876;28;20041;-76
2022/05/02 05:34:41;;;;;;;254.55;34.78;;;;;;;;;;5026559;28;20574;-75
2022/05/02 05:37:28;;;;;;;215.43;35.83;;;;;;;;;;5028585;28;20481;-76
2022/05/02 05:40:02;;;;;;;279.70;35.42;;;;;;;;;;5022221;28;20017;-75
2022/05/02 05:42:45;;;;;;;277.75;35.42;;;;;;;;;;5024644;28;20310;-75
2022/05/02 05:45:19;;;;;;;241.43;34.20;;;;;;;;;;5024785;28;20080;-80
2022/05/02 05:48:20;;;;;;;241.93;33.92;;;;;;;;;;5023704;28;20424;-80
2022/05/02 05:51:02;;;;;;;276.83;36.22;;;;;;;;;;5024781;28;20041;-80
2022/05/02 05:53:54;;;;;;;282.42;41.58;;;;;;;;;;5027334;28;20030;-81
2022/05/02 05:56:42;;;;;;;310.50;38.60;;;;;;;;;;5025407;28;20034;-80
2022/05/02 05:59:12;;;;;;;289.80;37.08;;;;;;;;;;5025003;28;20029;-81
2022/05/02 06:01:56;;;;;;;346.10;38.50;;;;;;;;;;5021446;28;20032;-81
2022/05/02 06:04:24;;;;;;;309.13;36.25;;;;;;;;;;5025754;28;20029;-81
2022/05/02 06:06:50;;;;;;;288.17;36.42;;;;;;;;;;5024835;28;20527;-81
2022/05/02 06:09:17;;;;;;;364.55;36.15;;;;;;;;;;5023397;28;20064;-80
2022/05/02 06:11:46;;;;;;;332.13;34.13;;;;;;;;;;5021370;28;21496;-82
2022/05/02 06:14:13;;;;;;;316.50;38.15;;;;;;;;;;5007488;28;20064;-81
2022/05/02 06:19:27;;;;;;;227.25;33.83;;;;;;;;;;5025977;28;20332;-81
2022/05/02 06:21:54;;;;;;;260.45;34.70;;;;;;;;;;5027760;28;20050;-81
2022/05/02 06:24:25;;;;;;;221.30;31.90;;;;;;;;;;5010610;28;20412;-81
2022/05/02 06:26:52;;;;;;;183.43;29.13;;;;;;;;;;5018578;28;20026;-80
2022/05/02 06:29:18;;;;;;;177.43;26.88;;;;;;;;;;5020137;28;20452;-80
2022/05/02 06:31:47;;;;;;;182.13;25.10;;;;;;;;;;5024482;28;20025;-80
2022/05/02 06:34:14;;;;;;;140.20;26.55;;;;;;;;;;5019677;28;20399;-79
2022/05/02 06:37:15;;;;;;;163.93;24.98;;;;;;;;;;5020048;28;20030;-80
2022/05/02 06:40:06;;;;;;;119.22;23.02;;;;;;;;;;5024402;28;20055;-78
2022/05/02 06:43:01;;;;;;;132.35;22.75;;;;;;;;;;5026856;28;20053;-80
2022/05/02 06:45:35;;;;;;;133.85;23.15;;;;;;;;;;5001715;28;20046;-80
2022/05/02 06:48:36;;;;;;;183.95;24.83;;;;;;;;;;5026481;28;20533;-80
2022/05/02 06:51:22;;;;;;;159.52;23.73;;;;;;;;;;5008398;28;20601;-80
2022/05/02 06:54:11;;;;;;;135.63;24.70;;;;;;;;;;5004204;28;20052;-79
2022/05/02 06:56:44;;;;;;;151.38;22.85;;;;;;;;;;5022234;28;20024;-80
2022/05/02 06:59:27;;;;;;;234.60;28.05;;;;;;;;;;5020153;28;20060;-81
2022/05/02 07:02:13;;;;;;;163.82;23.50;;;;;;;;;;5038975;28;20660;-80
2022/05/02 07:04:54;;;;;;;202.52;25.15;;;;;;;;;;5012925;28;20111;-81
2022/05/02 07:07:31;;;;;;;173.15;24.42;;;;;;;;;;5016308;28;20025;-80
2022/05/02 07:10:05;;;;;;;180.85;25.23;;;;;;;;;;5022306;28;20039;-80
2022/05/02 07:12:38;;;;;;;183.20;25.85;;;;;;;;;;5021603;28;20570;-80
2022/05/02 07:15:10;;;;;;;162.75;25.83;;;;;;;;;;5021290;28;20071;-80
2022/05/02 07:17:50;;;;;;;204.18;27.63;;;;;;;;;;5027582;28;20030;-80
2022/05/02 07:20:25;;;;;;;147.65;23.90;;;;;;;;;;5025024;28;20404;-80
2022/05/02 07:23:20;;;;;;;166.40;23.88;;;;;;;;;;5019175;28;20037;-80
2022/05/02 07:25:53;;;;;;;182.70;25.27;;;;;;;;;;5023760;28;20029;-81
2022/05/02 07:28:44;;;;;;;184.27;27.17;;;;;;;;;;5022742;28;20037;-80
2022/05/02 07:31:12;;;;;;;201.50;28.10;;;;;;;;;;5024195;28;20551;-80
2022/05/02 07:33:40;;;;;;;193.90;28.33;;;;;;;;;;5025021;28;20029;-80
2022/05/02 07:36:06;;;;;;;214.85;29.58;;;;;;;;;;5023518;28;20045;-80
2022/05/02 07:38:34;;;;;;;218.55;30.75;;;;;;;;;;5007725;28;20033;-80
2022/05/02 07:44:06;;;;;;;193.98;28.80;;;;;;;;;;4998069;28;20142;-80
2022/05/02 07:46:36;;;;;;;210.43;31.02;;;;;;;;;;5020400;28;20455;-80
2022/05/02 07:49:04;;;;;;;205.35;30.05;;;;;;;;;;5037587;28;20025;-82
2022/05/02 07:51:30;;;;;;;186.38;30.10;;;;;;;;;;5018522;28;20034;-82
2022/05/02 07:54:01;;;;;;;229.13;30.38;;;;;;;;;;4990407;28;20034;-81
2022/05/02 07:56:32;;;;;;;201.48;31.58;;;;;;;;;;5021484;28;20025;-81
2022/05/02 07:58:59;;;;;;;206.20;31.20;;;;;;;;;;5024441;28;20029;-81
2022/05/02 08:01:26;;;;;;;214.82;30.73;;;;;;;;;;5016270;28;20124;-81
2022/05/02 08:03:52;;;;;;;180.13;29.35;;;;;;;;;;5022541;28;20476;-82
2022/05/02 08:06:55;;;;;;;184.32;30.20;;;;;;;;;;5024266;28;20761;-81
2022/05/02 08:09:45;;;;;;;177.82;29.90;;;;;;;;;;5021366;28;20025;-79
2022/05/02 08:12:19;;;;;;;172.07;30.33;;;;;;;;;;5022920;28;20743;-81
2022/05/02 08:15:05;;;;;;;168.73;28.60;;;;;;;;;;5021403;28;20037;-80
2022/05/02 08:17:53;;;;;;;160.00;29.60;;;;;;;;;;5022264;28;20070;-76
2022/05/02 08:20:37;;;;;;;153.48;29.02;;;;;;;;;;5021950;28;20041;-75
2022/05/02 08:29:05;;;;;;;127.85;25.77;;;;;;;;;;5022157;28;20099;-75
2022/05/02 08:31:46;;;;;;;108.72;26.15;;;;;;;;;;5010882;28;20619;-74
2022/05/02 08:34:20;;;;;;;101.03;24.88;;;;;;;;;;5023720;28;20575;-75
2022/05/02 08:37:12;;;;;;;95.32;26.30;;;;;;;;;;5022326;28;20026;-75
2022/05/02 08:39:56;;;;;;;95.13;25.55;;;;;;;;;;5015793;28;20420;-76
2022/05/02 08:42:37;;;;;;;91.88;24.48;;;;;;;;;;5022640;28;20021;-75
2022/05/02 08:45:40;;;;;;;92.47;24.42;;;;;;;;;;5022377;28;20037;-76
2022/05/02 08:48:08;;;;;;;88.13;23.70;;;;;;;;;;5025667;28;20124;-75
2022/05/02 08:50:37;;;;;;;96.93;25.67;;;;;;;;;;5024981;28;20033;-75
2022/05/02 08:53:26;;;;;;;79.85;24.25;;;;;;;;;;5022774;28;20029;-76
2022/05/02 08:56:33;;;;;;;75.57;23.45;;;;;;;;;;5017812;28;20034;-75
2022/05/02 08:59:49;;;;;;;76.00;22.40;;;;;;;;;;5015408;28;20041;-75
2022/05/02 09:02:35;;;;;;;59.45;20.60;;;;;;;;;;5022523;28;20037;-75
2022/05/02 09:05:14;;;;;;;60.13;20.98;;;;;;;;;;5025999;28;20029;-75
2022/05/02 09:08:21;;;;;;;61.72;20.80;;;;;;;;;;5024859;28;20384;-75
2022/05/02 09:11:31;;;;;;;48.10;18.67;;;;;;;;;;4997659;28;20041;-76
2022/05/02 09:14:15;;;;;;;43.95;18.15;;;;;;;;;;5022858;28;20017;-75
2022/05/02 09:16:57;;;;;;;41.22;18.20;;;;;;;;;;5017531;28;20025;-76
2022/05/02 09:20:04;;;;;;;47.08;18.05;;;;;;;;;;5025249;28;20026;-75
2022/05/02 09:22:38;;;;;;;47.67;19.80;;;;;;;;;;5016368;28;20037;-75
2022/05/02 09:25:05;;;;;;;49.45;20.15;;;;;;;;;;5022958;28;20041;-75
2022/05/02 09:27:52;;;;;;;43.08;19.70;;;;;;;;;;5025184;28;20091;-75
2022/05/02 09:30:25;;;;;;;41.10;17.50;;;;;;;;;;5027943;28;20575;-76
2022/05/02 09:32:59;;;;;;;40.10;17.15;;;;;;;;;;5030122;28;20033;-76
2022/05/02 09:35:30;;;;;;;40.67;17.20;;;;;;;;;;5021488;28;20037;-76
2022/05/02 09:37:58;;;;;;;40.88;17.30;;;;;;;;;;5024982;28;20068;-75
2022/05/02 09:40:35;;;;;;;40.83;16.95;;;;;;;;;;5032880;28;20041;-76
2022/05/02 09:43:12;;;;;;;33.75;16.80;;;;;;;;;;5029369;28;20037;-76
2022/05/02 09:52:04;;;;;;;37.35;17.60;;;;;;;;;;5022745;28;20032;-75
2022/05/02 09:57:59;;;;;;;35.58;18.58;;;;;;;;;;5027259;28;20051;-76
2022/05/02 10:03:24;;;;;;;34.08;17.52;;;;;;;;;;5014087;28;20117;-76
2022/05/02 10:06:14;;;;;;;34.15;17.23;;;;;;;;;;5027676;28;20025;-76
2022/05/02 10:09:18;;;;;;;34.35;16.35;;;;;;;;;;5024753;28;20030;-76
2022/05/02 10:12:11;;;;;;;29.33;15.30;;;;;;;;;;4991788;28;20131;-75
2022/05/02 10:14:56;;;;;;;28.42;14.82;;;;;;;;;;5005353;28;20033;-76
2022/05/02 10:18:08;;;;;;;32.20;15.52;;;;;;;;;;5012429;28;20040;-75
2022/05/02 10:20:55;;;;;;;26.60;15.15;;;;;;;;;;5025296;28;20033;-75
2022/05/02 10:23:58;;;;;;;27.50;15.52;;;;;;;;;;5026654;28;20064;-80
2022/05/02 10:26:45;;;;;;;28.77;15.68;;;;;;;;;;4989796;28;20044;-80
2022/05/02 10:29:19;;;;;;;27.20;14.63;;;;;;;;;;5022396;28;20038;-80
2022/05/02 10:32:04;;;;;;;30.13;15.15;;;;;;;;;;5026311;28;20025;-80
2022/05/02 10:34:32;;;;;;;25.30;14.10;;;;;;;;;;5025247;28;20030;-80
2022/05/02 10:37:03;;;;;;;22.92;12.98;;;;;;;;;;5023807;28;20038;-80
2022/05/02 10:39:45;;;;;;;18.92;12.00;;;;;;;;;;5031308;28;20056;-80
2022/05/02 10:42:12;;;;;;;23.10;12.03;;;;;;;;;;5027522;28;20633;-80
2022/05/02 10:45:05;;;;;;;22.60;11.88;;;;;;;;;;5023893;28;20259;-80
2022/05/02 10:47:44;;;;;;;19.73;11.05;;;;;;;;;;5024629;28;20041;-80
2022/05/02 10:50:19;;;;;;;19.77;11.63;;;;;;;;;;5026068;28;20040;-80
2022/05/02 10:53:02;;;;;;;22.23;12.95;;;;;;;;;;5019335;28;20056;-80
2022/05/02 10:55:32;;;;;;;26.88;14.27;;;;;;;;;;5027270;28;20484;-81
2022/05/02 10:58:04;;;;;;;26.50;14.00;;;;;;;;;;5017148;28;20029;-81
2022/05/02 11:00:30;;;;;;;23.13;13.18;;;;;;;;;;5024946;28;20087;-80
2022/05/02 11:03:34;;;;;;;20.85;13.07;;;;;;;;;;5026341;28;20036;-80
2022/05/02 11:06:19;;;;;;;24.48;13.73;;;;;;;;;;5011559;28;20030;-80
2022/05/02 11:08:50;;;;;;;23.17;12.93;;;;;;;;;;5025898;28;20034;-79
2022/05/02 11:11:48;;;;;;;23.17;12.23;;;;;;;;;;5022505;28;20037;-80
2022/05/02 11:14:48;;;;;;;19.65;10.38;;;;;;;;;;5015425;28;20036;-79
2022/05/02 11:17:32;;;;;;;15.73;9.52;;;;;;;;;;5022264;28;20029;-80
2022/05/02 11:22:43;;;;;;;19.80;10.70;;;;;;;;;;5024521;28;20036;-80
2022/05/02 11:25:08;;;;;;;18.85;9.73;;;;;;;;;;5020683;28;20027;-80
2022/05/02 11:27:41;;;;;;;20.73;11.52;;;;;;;;;;5017795;28;20032;-79
2022/05/02 11:30:09;;;;;;;18.63;10.75;;;;;;;;;;5024275;28;20025;-80
2022/05/02 11:32:40;;;;;;;20.95;11.30;;;;;;;;;;5030503;28;20036;-80
2022/05/02 11:35:15;;;;;;;23.70;12.48;;;;;;;;;;5020699;28;20092;-80
2022/05/02 11:37:57;;;;;;;23.55;12.45;;;;;;;;;;5025110;28;20038;-80
2022/05/02 11:40:28;;;;;;;22.85;12.27;;;;;;;;;;5017586;28;20025;-80
2022/05/02 11:42:54;;;;;;;24.38;12.85;;;;;;;;;;5023498;28;20539;-79
2022/05/02 11:45:28;;;;;;;26.40;12.48;;;;;;;;;;5005330;28;20045;-80
2022/05/02 11:48:06;;;;;;;27.42;13.60;;;;;;;;;;5025532;28;20042;-80
2022/05/02 11:50:41;;;;;;;26.05;12.80;;;;;;;;;;5026014;28;20541;-80
2022/05/02 11:53:09;;;;;;;21.45;12.27;;;;;;;;;;5024089;28;20083;-75
2022/05/02 11:55:36;;;;;;;31.83;13.23;;;;;;;;;;5024961;28;20104;-75
2022/05/02 11:58:29;;;;;;;26.88;12.93;;;;;;;;;;5022471;28;20064;-75
2022/05/02 12:01:09;;;;;;;28.77;15.13;;;;;;;;;;5023454;28;20029;-75
2022/05/02 12:04:03;;;;;;;28.63;15.05;;;;;;;;;;5024132;28;20033;-77
2022/05/02 12:06:59;;;;;;;31.88;15.40;;;;;;;;;;5018305;28;20034;-76
2022/05/02 12:09:24;;;;;;;27.48;14.65;;;;;;;;;;5025049;28;20021;-75
2022/05/02 12:11:55;;;;;;;26.38;14.23;;;;;;;;;;5027280;28;20040;-75
2022/05/02 12:14:21;;;;;;;30.48;13.95;;;;;;;;;;5024040;28;20530;-75
2022/05/02 12:17:11;;;;;;;34.28;15.32;;;;;;;;;;5018174;28;20111;-75
2022/05/02 12:19:39;;;;;;;32.35;14.68;;;;;;;;;;5017204;28;20053;-75
2022/05/02 12:22:08;;;;;;;28.55;14.73;;;;;;;;;;5001921;28;20033;-75
2022/05/02 12:24:38;;;;;;;32.15;14.15;;;;;;;;;;5017670;28;20065;-80
2022/05/02 12:27:08;;;;;;;33.30;15.70;;;;;;;;;;5025624;28;20029;-80
2022/05/02 12:29:35;;;;;;;39.65;18.25;;;;;;;;;;5006011;28;20551;-80
2022/05/02 12:32:04;;;;;;;42.17;18.67;;;;;;;;;;5007273;28;20559;-80
2022/05/02 12:34:42;;;;;;;43.85;19.77;;;;;;;;;;5026825;28;20103;-80
2022/05/02 12:37:28;;;;;;;45.60;18.75;;;;;;;;;;5023371;28;20057;-80
2022/05/02 12:40:06;;;;;;;41.05;18.85;;;;;;;;;;5019020;28;20053;-80
2022/05/02 12:42:47;;;;;;;44.78;18.90;;;;;;;;;;5018806;28;20487;-79
2022/05/02 12:45:22;;;;;;;44.90;19.30;;;;;;;;;;5017703;28;20530;-79
2022/05/02 12:48:08;;;;;;;48.85;18.63;;;;;;;;;;5022966;28;20518;-79
2022/05/02 12:50:44;;;;;;;38.28;17.00;;;;;;;;;;5023144;28;20030;-80
2022/05/02 12:54:09;;;;;;;38.95;17.33;;;;;;;;;;5016307;28;20029;-80
2022/05/02 12:56:05;;;;;;;40.30;18.15;;;;;;;;;;5016272;28;20047;-80
2022/05/02 13:01:20;;;;;;;42.63;18.55;;;;;;;;;;5021409;28;20060;-80
2022/05/02 13:03:56;;;;;;;51.80;20.65;;;;;;;;;;5023101;28;20054;-80
2022/05/02 13:06:23;;;;;;;39.42;17.70;;;;;;;;;;5020752;28;20040;-79
2022/05/02 13:08:49;;;;;;;42.45;17.75;;;;;;;;;;5032711;28;20025;-80
2022/05/02 13:11:21;;;;;;;50.55;20.90;;;;;;;;;;5028257;28;20277;-80
2022/05/02 13:13:50;;;;;;;46.78;20.60;;;;;;;;;;5016785;28;20069;-80
2022/05/02 13:16:26;;;;;;;47.72;21.25;;;;;;;;;;5020726;28;20046;-81
2022/05/02 13:18:52;;;;;;;52.03;22.67;;;;;;;;;;5021742;28;20025;-80
2022/05/02 13:21:19;;;;;;;51.45;22.52;;;;;;;;;;5020542;28;20499;-80
2022/05/02 13:23:55;;;;;;;53.88;23.00;;;;;;;;;;5022577;28;20037;-80
2022/05/02 13:26:27;;;;;;;51.88;22.15;;;;;;;;;;5025441;28;20030;-80
2022/05/02 13:29:23;;;;;;;56.75;22.52;;;;;;;;;;5029096;28;20103;-80
2022/05/02 13:31:57;;;;;;;54.78;22.73;;;;;;;;;;5027305;28;20132;-80
2022/05/02 13:35:04;;;;;;;55.67;22.92;;;;;;;;;;5024096;28;20469;-80
2022/05/02 13:37:40;;;;;;;50.28;21.30;;;;;;;;;;5026979;28;20041;-81
2022/05/02 13:40:10;;;;;;;54.50;22.15;;;;;;;;;;5023082;28;20041;-80
2022/05/02 13:42:51;;;;;;;53.75;21.85;;;;;;;;;;5025028;28;20048;-80
2022/05/02 13:45:16;;;;;;;50.50;21.60;;;;;;;;;;5024367;28;20063;-80
2022/05/02 13:48:00;;;;;;;55.90;20.52;;;;;;;;;;5028696;28;20037;-80
2022/05/02 13:50:27;;;;;;;56.30;21.83;;;;;;;;;;5026085;28;20107;-80
2022/05/02 13:53:18;;;;;;;54.67;22.08;;;;;;;;;;5016137;28;20095;-80
2022/05/02 13:56:21;;;;;;;47.63;19.48;;;;;;;;;;5021467;28;20104;-80
2022/05/02 13:59:01;;;;;;;46.50;19.77;;;;;;;;;;5024922;28;20029;-80
2022/05/02 14:01:45;;;;;;;47.13;20.70;;;;;;;;;;5026546;28;20118;-80
2022/05/02 14:04:29;;;;;;;48.83;19.75;;;;;;;;;;5021525;28;20029;-80
2022/05/02 14:09:54;;;;;;;42.63;18.48;;;;;;;;;;5023146;28;20495;-80
2022/05/02 14:12:23;;;;;;;37.97;17.38;;;;;;;;;;5001245;28;20069;-80
2022/05/02 14:14:56;;;;;;;48.78;19.25;;;;;;;;;;5027495;28;20770;-80
2022/05/02 14:17:26;;;;;;;42.08;17.67;;;;;;;;;;4994287;28;20048;-80
2022/05/02 14:20:07;;;;;;;39.67;14.85;;;;;;;;;;5025865;28;20188;-80
2022/05/02 14:22:34;;;;;;;34.97;15.07;;;;;;;;;;5004966;28;20496;-81
2022/05/02 14:25:00;;;;;;;37.90;15.65;;;;;;;;;;5027643;28;20045;-80
2022/05/02 14:27:29;;;;;;;43.42;17.27;;;;;;;;;;5008972;28;20036;-80
2022/05/02 14:30:06;;;;;;;36.08;15.95;;;;;;;;;;5027561;28;20116;-81
2022/05/02 14:32:46;;;;;;;38.60;16.25;;;;;;;;;;5026077;28;20037;-81
2022/05/02 14:35:42;;;;;;;38.92;15.80;;;;;;;;;;5017045;28;20034;-80
2022/05/02 14:38:16;;;;;;;33.30;16.48;;;;;;;;;;5018272;28;20042;-80
2022/05/02 14:40:46;;;;;;;33.25;14.00;;;;;;;;;;5027562;28;20104;-80
2022/05/02 14:43:17;;;;;;;32.72;15.32;;;;;;;;;;5025427;28;20112;-80
2022/05/02 14:45:44;;;;;;;37.93;16.17;;;;;;;;;;5027655;28;20387;-80
2022/05/02 14:48:14;;;;;;;34.40;16.25;;;;;;;;;;5023088;28;20041;-79
2022/05/02 14:51:04;;;;;;;35.53;15.23;;;;;;;;;;5023356;28;20036;-79
2022/05/02 14:53:49;;;;;;;38.17;17.30;;;;;;;;;;5017026;28;20044;-79
2022/05/02 14:56:16;;;;;;;33.42;14.65;;;;;;;;;;5018998;28;20503;-79
2022/05/02 14:58:43;;;;;;;35.08;15.15;;;;;;;;;;5022841;28;20029;-79
2022/05/02 15:01:13;;;;;;;31.42;14.52;;;;;;;;;;5010467;28;20033;-79
2022/05/02 15:03:42;;;;;;;32.92;15.15;;;;;;;;;;5021278;28;20021;-80
2022/05/02 15:06:08;;;;;;;37.67;16.83;;;;;;;;;;5024206;28;20083;-80
2022/05/02 15:08:46;;;;;;;34.28;15.73;;;;;;;;;;5022250;28;20030;-79
2022/05/02 15:11:16;;;;;;;36.97;16.55;;;;;;;;;;5025314;28;20035;-79
2022/05/02 15:13:57;;;;;;;42.83;17.80;;;;;;;;;;5025605;28;20021;-79
2022/05/02 15:16:36;;;;;;;37.40;16.70;;;;;;;;;;5022972;28;20076;-79
2022/05/02 15:19:45;;;;;;;37.60;15.85;;;;;;;;;;5024573;28;20404;-79
2022/05/02 15:22:39;;;;;;;40.03;16.73;;;;;;;;;;5008804;28;20041;-79
2022/05/02 15:25:07;;;;;;;35.58;16.20;;;;;;;;;;5024568;28;20041;-75
2022/05/02 15:36:40;;;;;;;36.80;16.52;;;;;;;;;;5018302;28;20106;-75
2022/05/02 15:39:25;;;;;;;37.05;16.90;;;;;;;;;;5024067;28;20500;-75
2022/05/02 15:42:02;;;;;;;37.90;15.75;;;;;;;;;;5015501;28;20060;-75
2022/05/02 15:44:35;;;;;;;41.95;15.45;;;;;;;;;;5028151;28;20025;-75
2022/05/02 15:47:11;;;;;;;38.65;17.30;;;;;;;;;;5024403;28;20057;-75